La Grange, Arkansas
Current Conditions -  °F | °C
As of 8:35 AM on Thursday 27 Nov 2014 (Local Time) from KUTA Reporting Station
Overcast Overcast  
Wind Chill: 30°   Ceiling: 3000
Heat Index: 37°   Visibility: 10mi
Dew Point: 32°   Wind: 12mph
Humidity: 81%   Direction: 350°N
Pressure: 30.49"   Gusts: 16mph
Location:  34.66°N, 90.73°W
Report Text: KUTA 271435Z AUTO 35010G14KT 10SM OVC030 03/00 A3049 RMK AO2
Loading
Personal Weather Stations






























Interactive Weather Map New forecast layout! Learn more

10-Day Weather Forecast

Advertisements
Track Severe Weather on mobile